New Philadelphia, Pennsylvania
Current Conditions -  °F | °C
As of 8:35 PM on Thursday 18 Dec 2014 (Local Time) from KHZL Reporting Station
Overcast Overcast  
Wind Chill: 23°   Ceiling: 2100
Heat Index: 32°   Visibility: 10mi
Dew Point: 27°   Wind: 13mph
Humidity: 80%   Direction: 290°WNW
Pressure: 29.99"   Gusts: 17mph
Location:  40.72°N, 76.12°W
Report Text: KHZL 190135Z AUTO 29011G15KT 10SM OVC021 00/M03 A2999 RMK AO2
Loading
Personal Weather Stations






























Interactive Weather Map New forecast layout! Learn more

10-Day Weather Forecast

Advertisements
Track Severe Weather on mobile